sensor_id;sensor_type;location;lat;lon;timestamp;temperature;humidity
76203;DHT22;64985;46.364;17.008;2023-02-28T00:01:27;0.20;99.90
76203;DHT22;64985;46.364;17.008;2023-02-28T00:04:30;0.20;99.90
76203;DHT22;64985;46.364;17.008;2023-02-28T00:07:32;0.30;99.90
76203;DHT22;64985;46.364;17.008;2023-02-28T00:10:34;0.30;99.90
76203;DHT22;64985;46.364;17.008;2023-02-28T00:13:42;0.30;99.90
76203;DHT22;64985;46.364;17.008;2023-02-28T00:16:44;0.30;99.90
76203;DHT22;64985;46.364;17.008;2023-02-28T00:19:48;0.30;99.90
76203;DHT22;64985;46.364;17.008;2023-02-28T00:22:52;0.30;99.90
76203;DHT22;64985;46.364;17.008;2023-02-28T00:25:55;0.30;99.90
76203;DHT22;64985;46.364;17.008;2023-02-28T00:28:57;0.30;99.90
76203;DHT22;64985;46.364;17.008;2023-02-28T00:32:00;0.30;99.90
76203;DHT22;64985;46.364;17.008;2023-02-28T00:35:03;0.30;99.90
76203;DHT22;64985;46.364;17.008;2023-02-28T00:38:05;0.30;99.90
76203;DHT22;64985;46.364;17.008;2023-02-28T00:41:08;0.20;99.90
76203;DHT22;64985;46.364;17.008;2023-02-28T00:44:10;0.20;99.90
76203;DHT22;64985;46.364;17.008;2023-02-28T00:47:12;0.30;99.90
76203;DHT22;64985;46.364;17.008;2023-02-28T00:50:17;0.30;99.90
76203;DHT22;64985;46.364;17.008;2023-02-28T00:53:20;0.20;99.90
76203;DHT22;64985;46.364;17.008;2023-02-28T00:56:22;0.20;99.90
76203;DHT22;64985;46.364;17.008;2023-02-28T00:59:25;0.20;99.90
76203;DHT22;64985;46.364;17.008;2023-02-28T01:02:27;0.20;99.90
76203;DHT22;64985;46.364;17.008;2023-02-28T01:05:29;0.20;99.90
76203;DHT22;64985;46.364;17.008;2023-02-28T01:08:32;0.20;99.90
76203;DHT22;64985;46.364;17.008;2023-02-28T01:11:34;0.20;99.90
76203;DHT22;64985;46.364;17.008;2023-02-28T01:14:37;0.20;99.90
76203;DHT22;64985;46.364;17.008;2023-02-28T01:17:39;0.20;99.90
76203;DHT22;64985;46.364;17.008;2023-02-28T01:20:41;0.20;99.90
76203;DHT22;64985;46.364;17.008;2023-02-28T01:23:44;0.20;99.90
76203;DHT22;64985;46.364;17.008;2023-02-28T01:26:46;0.30;99.90
76203;DHT22;64985;46.364;17.008;2023-02-28T01:29:50;0.30;99.90
76203;DHT22;64985;46.364;17.008;2023-02-28T01:32:52;0.20;99.90
76203;DHT22;64985;46.364;17.008;2023-02-28T01:36:04;0.20;99.90
76203;DHT22;64985;46.364;17.008;2023-02-28T01:39:07;0.20;99.90
76203;DHT22;64985;46.364;17.008;2023-02-28T01:42:10;0.20;99.90
76203;DHT22;64985;46.364;17.008;2023-02-28T01:45:38;0.30;99.90
76203;DHT22;64985;46.364;17.008;2023-02-28T01:48:48;0.30;99.90
76203;DHT22;64985;46.364;17.008;2023-02-28T01:51:55;0.20;99.90
76203;DHT22;64985;46.364;17.008;2023-02-28T01:55:00;0.20;99.90
76203;DHT22;64985;46.364;17.008;2023-02-28T01:58:05;0.20;99.90
76203;DHT22;64985;46.364;17.008;2023-02-28T02:01:08;0.20;99.90
76203;DHT22;64985;46.364;17.008;2023-02-28T02:04:10;0.30;99.90
76203;DHT22;64985;46.364;17.008;2023-02-28T02:07:13;0.30;99.90
76203;DHT22;64985;46.364;17.008;2023-02-28T02:10:18;0.20;99.90
76203;DHT22;64985;46.364;17.008;2023-02-28T02:37:34;0.00;99.90
76203;DHT22;64985;46.364;17.008;2023-02-28T02:40:53;-0.10;99.90
76203;DHT22;64985;46.364;17.008;2023-02-28T02:47:10;-0.10;99.90
76203;DHT22;64985;46.364;17.008;2023-02-28T02:50:19;-0.10;99.90
76203;DHT22;64985;46.364;17.008;2023-02-28T02:53:30;0.00;99.90
76203;DHT22;64985;46.364;17.008;2023-02-28T02:56:36;0.00;99.90
76203;DHT22;64985;46.364;17.008;2023-02-28T02:59:41;0.00;99.90
76203;DHT22;64985;46.364;17.008;2023-02-28T03:02:46;0.00;99.90
76203;DHT22;64985;46.364;17.008;2023-02-28T03:05:50;0.00;99.90
76203;DHT22;64985;46.364;17.008;2023-02-28T03:08:53;0.00;99.90
76203;DHT22;64985;46.364;17.008;2023-02-28T03:11:56;0.00;99.90
76203;DHT22;64985;46.364;17.008;2023-02-28T03:15:19;0.00;99.90
76203;DHT22;64985;46.364;17.008;2023-02-28T03:21:47;0.00;99.90
76203;DHT22;64985;46.364;17.008;2023-02-28T03:31:41;0.10;99.90
76203;DHT22;64985;46.364;17.008;2023-02-28T03:35:14;0.10;99.90
76203;DHT22;64985;46.364;17.008;2023-02-28T03:39:16;0.20;99.90
76203;DHT22;64985;46.364;17.008;2023-02-28T03:42:05;0.20;99.90
76203;DHT22;64985;46.364;17.008;2023-02-28T03:45:24;0.20;99.90
76203;DHT22;64985;46.364;17.008;2023-02-28T03:48:45;0.20;99.90
76203;DHT22;64985;46.364;17.008;2023-02-28T03:51:50;0.30;99.90
76203;DHT22;64985;46.364;17.008;2023-02-28T03:54:56;0.30;99.90
76203;DHT22;64985;46.364;17.008;2023-02-28T03:58:11;0.30;99.90
76203;DHT22;64985;46.364;17.008;2023-02-28T04:01:21;0.40;99.90
76203;DHT22;64985;46.364;17.008;2023-02-28T04:04:25;0.40;99.90
76203;DHT22;64985;46.364;17.008;2023-02-28T04:07:31;0.30;99.90
76203;DHT22;64985;46.364;17.008;2023-02-28T04:10:34;0.40;99.90
76203;DHT22;64985;46.364;17.008;2023-02-28T04:13:36;0.40;99.90
76203;DHT22;64985;46.364;17.008;2023-02-28T04:16:41;0.40;99.90
76203;DHT22;64985;46.364;17.008;2023-02-28T04:19:43;0.30;99.90
76203;DHT22;64985;46.364;17.008;2023-02-28T04:22:46;0.40;99.90
76203;DHT22;64985;46.364;17.008;2023-02-28T04:25:48;0.30;99.90
76203;DHT22;64985;46.364;17.008;2023-02-28T04:28:51;0.40;99.90
76203;DHT22;64985;46.364;17.008;2023-02-28T04:31:54;0.40;99.90
76203;DHT22;64985;46.364;17.008;2023-02-28T04:34:59;0.40;99.90
76203;DHT22;64985;46.364;17.008;2023-02-28T04:38:01;0.30;99.90
76203;DHT22;64985;46.364;17.008;2023-02-28T04:41:04;0.40;99.90
76203;DHT22;64985;46.364;17.008;2023-02-28T04:44:07;0.40;99.90
76203;DHT22;64985;46.364;17.008;2023-02-28T04:47:09;0.40;99.90
76203;DHT22;64985;46.364;17.008;2023-02-28T04:50:11;0.30;99.90
76203;DHT22;64985;46.364;17.008;2023-02-28T04:53:13;0.30;99.90
76203;DHT22;64985;46.364;17.008;2023-02-28T04:56:17;0.30;99.90
76203;DHT22;64985;46.364;17.008;2023-02-28T04:59:19;0.30;99.90
76203;DHT22;64985;46.364;17.008;2023-02-28T05:02:22;0.30;99.90
76203;DHT22;64985;46.364;17.008;2023-02-28T05:05:25;0.30;99.90
76203;DHT22;64985;46.364;17.008;2023-02-28T05:08:27;0.30;99.90
76203;DHT22;64985;46.364;17.008;2023-02-28T05:11:33;0.30;99.90
76203;DHT22;64985;46.364;17.008;2023-02-28T05:14:40;0.30;99.90
76203;DHT22;64985;46.364;17.008;2023-02-28T05:17:42;0.30;99.90
76203;DHT22;64985;46.364;17.008;2023-02-28T05:20:45;0.30;99.90
76203;DHT22;64985;46.364;17.008;2023-02-28T05:23:47;0.30;99.90
76203;DHT22;64985;46.364;17.008;2023-02-28T05:26:51;0.30;99.90
76203;DHT22;64985;46.364;17.008;2023-02-28T05:29:54;0.30;99.90
76203;DHT22;64985;46.364;17.008;2023-02-28T05:32:56;0.30;99.90
76203;DHT22;64985;46.364;17.008;2023-02-28T05:35:58;0.30;99.90
76203;DHT22;64985;46.364;17.008;2023-02-28T05:39:01;0.30;99.90
76203;DHT22;64985;46.364;17.008;2023-02-28T05:42:03;0.30;99.90
76203;DHT22;64985;46.364;17.008;2023-02-28T05:45:06;0.30;99.90
76203;DHT22;64985;46.364;17.008;2023-02-28T05:48:08;0.30;99.90
76203;DHT22;64985;46.364;17.008;2023-02-28T05:51:11;0.30;99.90
76203;DHT22;64985;46.364;17.008;2023-02-28T05:54:13;0.30;99.90
76203;DHT22;64985;46.364;17.008;2023-02-28T05:57:15;0.40;99.90
76203;DHT22;64985;46.364;17.008;2023-02-28T06:00:25;0.40;99.90
76203;DHT22;64985;46.364;17.008;2023-02-28T06:03:27;0.50;99.90
76203;DHT22;64985;46.364;17.008;2023-02-28T06:06:30;0.50;99.90
76203;DHT22;64985;46.364;17.008;2023-02-28T06:09:32;0.50;99.90
76203;DHT22;64985;46.364;17.008;2023-02-28T06:12:34;0.60;99.90
76203;DHT22;64985;46.364;17.008;2023-02-28T06:15:36;0.60;99.90
76203;DHT22;64985;46.364;17.008;2023-02-28T06:18:39;0.60;99.90
76203;DHT22;64985;46.364;17.008;2023-02-28T06:21:41;0.60;99.90
76203;DHT22;64985;46.364;17.008;2023-02-28T06:24:43;0.70;99.90
76203;DHT22;64985;46.364;17.008;2023-02-28T06:27:46;0.70;99.90
76203;DHT22;64985;46.364;17.008;2023-02-28T06:30:48;0.70;99.90
76203;DHT22;64985;46.364;17.008;2023-02-28T06:33:50;0.70;99.90
76203;DHT22;64985;46.364;17.008;2023-02-28T06:36:52;0.80;99.90
76203;DHT22;64985;46.364;17.008;2023-02-28T06:39:54;0.80;99.90
76203;DHT22;64985;46.364;17.008;2023-02-28T06:43:00;0.80;99.90
76203;DHT22;64985;46.364;17.008;2023-02-28T06:46:04;0.80;99.90
76203;DHT22;64985;46.364;17.008;2023-02-28T06:49:07;0.80;99.90
76203;DHT22;64985;46.364;17.008;2023-02-28T06:52:10;0.90;99.90
76203;DHT22;64985;46.364;17.008;2023-02-28T06:55:12;0.90;99.90
76203;DHT22;64985;46.364;17.008;2023-02-28T06:58:15;0.90;99.90
76203;DHT22;64985;46.364;17.008;2023-02-28T07:01:20;1.00;99.90
76203;DHT22;64985;46.364;17.008;2023-02-28T07:04:22;1.10;99.90
76203;DHT22;64985;46.364;17.008;2023-02-28T07:07:24;1.20;99.90
76203;DHT22;64985;46.364;17.008;2023-02-28T07:10:27;1.20;99.90
76203;DHT22;64985;46.364;17.008;2023-02-28T07:13:29;1.30;99.90
76203;DHT22;64985;46.364;17.008;2023-02-28T07:16:32;1.40;99.90
76203;DHT22;64985;46.364;17.008;2023-02-28T07:19:34;1.40;99.90
76203;DHT22;64985;46.364;17.008;2023-02-28T07:22:36;1.50;99.90
76203;DHT22;64985;46.364;17.008;2023-02-28T07:25:39;1.60;99.90
76203;DHT22;64985;46.364;17.008;2023-02-28T07:28:42;1.60;99.90
76203;DHT22;64985;46.364;17.008;2023-02-28T07:31:44;1.70;99.90
76203;DHT22;64985;46.364;17.008;2023-02-28T07:34:48;1.90;99.90
76203;DHT22;64985;46.364;17.008;2023-02-28T07:37:51;2.00;99.90
76203;DHT22;64985;46.364;17.008;2023-02-28T07:40:53;2.10;99.90
76203;DHT22;64985;46.364;17.008;2023-02-28T07:43:55;2.20;99.90
76203;DHT22;64985;46.364;17.008;2023-02-28T07:46:59;2.30;99.90
76203;DHT22;64985;46.364;17.008;2023-02-28T07:50:01;2.50;99.90
76203;DHT22;64985;46.364;17.008;2023-02-28T07:53:04;2.70;99.90
76203;DHT22;64985;46.364;17.008;2023-02-28T07:56:07;2.90;99.90
76203;DHT22;64985;46.364;17.008;2023-02-28T07:59:09;3.10;99.90
76203;DHT22;64985;46.364;17.008;2023-02-28T08:02:14;3.40;99.90
76203;DHT22;64985;46.364;17.008;2023-02-28T08:05:16;3.50;98.00
76203;DHT22;64985;46.364;17.008;2023-02-28T08:08:22;3.40;98.60
76203;DHT22;64985;46.364;17.008;2023-02-28T08:11:25;3.40;99.20
76203;DHT22;64985;46.364;17.008;2023-02-28T08:14:27;3.60;99.90
76203;DHT22;64985;46.364;17.008;2023-02-28T08:17:29;3.60;98.80
76203;DHT22;64985;46.364;17.008;2023-02-28T08:20:34;3.40;96.70
76203;DHT22;64985;46.364;17.008;2023-02-28T08:23:37;3.40;98.00
76203;DHT22;64985;46.364;17.008;2023-02-28T08:26:39;3.70;97.30
76203;DHT22;64985;46.364;17.008;2023-02-28T08:29:41;3.80;97.00
76203;DHT22;64985;46.364;17.008;2023-02-28T08:32:43;4.00;95.80
76203;DHT22;64985;46.364;17.008;2023-02-28T08:35:45;4.00;92.40
76203;DHT22;64985;46.364;17.008;2023-02-28T08:38:48;4.10;95.40
76203;DHT22;64985;46.364;17.008;2023-02-28T08:41:50;4.20;94.30
76203;DHT22;64985;46.364;17.008;2023-02-28T08:45:06;4.20;95.60
76203;DHT22;64985;46.364;17.008;2023-02-28T08:48:09;4.40;91.90
76203;DHT22;64985;46.364;17.008;2023-02-28T08:51:15;4.50;83.70
76203;DHT22;64985;46.364;17.008;2023-02-28T08:54:20;4.60;93.20
76203;DHT22;64985;46.364;17.008;2023-02-28T08:57:23;4.60;89.50
76203;DHT22;64985;46.364;17.008;2023-02-28T09:00:45;4.80;94.00
76203;DHT22;64985;46.364;17.008;2023-02-28T09:03:49;4.70;89.30
76203;DHT22;64985;46.364;17.008;2023-02-28T09:06:51;5.00;91.50
76203;DHT22;64985;46.364;17.008;2023-02-28T09:09:53;5.30;87.30
76203;DHT22;64985;46.364;17.008;2023-02-28T09:12:56;5.40;61.90
76203;DHT22;64985;46.364;17.008;2023-02-28T09:15:59;5.40;74.50
76203;DHT22;64985;46.364;17.008;2023-02-28T09:19:02;5.50;63.50
76203;DHT22;64985;46.364;17.008;2023-02-28T09:22:04;5.30;59.40
76203;DHT22;64985;46.364;17.008;2023-02-28T09:25:06;5.30;68.90
76203;DHT22;64985;46.364;17.008;2023-02-28T09:28:09;5.70;60.50
76203;DHT22;64985;46.364;17.008;2023-02-28T09:31:13;5.60;62.30
76203;DHT22;64985;46.364;17.008;2023-02-28T09:34:17;6.00;62.10
76203;DHT22;64985;46.364;17.008;2023-02-28T09:37:19;6.40;60.30
76203;DHT22;64985;46.364;17.008;2023-02-28T09:40:24;6.50;62.90
76203;DHT22;64985;46.364;17.008;2023-02-28T09:43:37;6.40;56.50
76203;DHT22;64985;46.364;17.008;2023-02-28T09:46:49;6.40;54.00
76203;DHT22;64985;46.364;17.008;2023-02-28T09:49:56;6.40;54.60
76203;DHT22;64985;46.364;17.008;2023-02-28T09:53:03;6.30;51.10
76203;DHT22;64985;46.364;17.008;2023-02-28T09:56:10;6.20;50.20
76203;DHT22;64985;46.364;17.008;2023-02-28T09:59:25;6.30;64.00
76203;DHT22;64985;46.364;17.008;2023-02-28T10:09:15;6.80;45.80
76203;DHT22;64985;46.364;17.008;2023-02-28T10:12:20;6.60;46.90
76203;DHT22;64985;46.364;17.008;2023-02-28T10:15:25;6.70;44.70
76203;DHT22;64985;46.364;17.008;2023-02-28T10:18:35;6.90;40.20
76203;DHT22;64985;46.364;17.008;2023-02-28T10:22:05;6.50;44.10
76203;DHT22;64985;46.364;17.008;2023-02-28T10:25:26;7.10;47.00
76203;DHT22;64985;46.364;17.008;2023-02-28T10:28:30;7.10;44.70
76203;DHT22;64985;46.364;17.008;2023-02-28T10:31:32;7.50;46.90
76203;DHT22;64985;46.364;17.008;2023-02-28T10:34:35;8.10;44.70
76203;DHT22;64985;46.364;17.008;2023-02-28T10:37:41;8.10;38.80
76203;DHT22;64985;46.364;17.008;2023-02-28T10:40:44;7.60;46.40
76203;DHT22;64985;46.364;17.008;2023-02-28T10:43:46;6.90;43.00
76203;DHT22;64985;46.364;17.008;2023-02-28T10:46:49;6.90;47.40
76203;DHT22;64985;46.364;17.008;2023-02-28T10:49:52;6.70;48.50
76203;DHT22;64985;46.364;17.008;2023-02-28T10:53:13;6.40;47.20
76203;DHT22;64985;46.364;17.008;2023-02-28T10:56:22;6.50;48.80
76203;DHT22;64985;46.364;17.008;2023-02-28T10:59:29;6.70;41.00
76203;DHT22;64985;46.364;17.008;2023-02-28T11:02:36;7.00;44.00
76203;DHT22;64985;46.364;17.008;2023-02-28T11:05:40;7.30;49.50
76203;DHT22;64985;46.364;17.008;2023-02-28T11:08:55;7.40;48.90
76203;DHT22;64985;46.364;17.008;2023-02-28T11:11:57;7.00;45.40
76203;DHT22;64985;46.364;17.008;2023-02-28T11:15:03;6.90;49.70
76203;DHT22;64985;46.364;17.008;2023-02-28T11:18:53;6.60;52.20
76203;DHT22;64985;46.364;17.008;2023-02-28T11:21:56;6.80;54.40
76203;DHT22;64985;46.364;17.008;2023-02-28T11:25:07;6.70;42.40
76203;DHT22;64985;46.364;17.008;2023-02-28T11:28:33;6.50;48.70
76203;DHT22;64985;46.364;17.008;2023-02-28T11:31:35;6.60;45.80
76203;DHT22;64985;46.364;17.008;2023-02-28T11:34:39;6.50;45.50
76203;DHT22;64985;46.364;17.008;2023-02-28T11:37:41;6.40;53.40
76203;DHT22;64985;46.364;17.008;2023-02-28T11:40:59;6.20;47.20
76203;DHT22;64985;46.364;17.008;2023-02-28T11:48:20;6.30;57.40
76203;DHT22;64985;46.364;17.008;2023-02-28T11:51:32;6.10;53.80
76203;DHT22;64985;46.364;17.008;2023-02-28T11:54:43;6.00;50.20
76203;DHT22;64985;46.364;17.008;2023-02-28T12:08:17;6.70;54.90
76203;DHT22;64985;46.364;17.008;2023-02-28T12:28:00;6.80;51.00
76203;DHT22;64985;46.364;17.008;2023-02-28T12:31:14;7.10;55.20
76203;DHT22;64985;46.364;17.008;2023-02-28T12:34:33;7.30;52.30
76203;DHT22;64985;46.364;17.008;2023-02-28T12:37:43;7.40;46.50
76203;DHT22;64985;46.364;17.008;2023-02-28T12:40:57;7.10;47.80
76203;DHT22;64985;46.364;17.008;2023-02-28T12:44:06;6.80;45.80
76203;DHT22;64985;46.364;17.008;2023-02-28T12:47:14;7.00;52.10
76203;DHT22;64985;46.364;17.008;2023-02-28T12:50:18;6.90;46.90
76203;DHT22;64985;46.364;17.008;2023-02-28T13:00:14;7.70;50.90
76203;DHT22;64985;46.364;17.008;2023-02-28T13:03:32;7.80;51.60
76203;DHT22;64985;46.364;17.008;2023-02-28T13:10:04;7.80;51.10
76203;DHT22;64985;46.364;17.008;2023-02-28T13:13:17;7.70;45.60
76203;DHT22;64985;46.364;17.008;2023-02-28T13:16:20;7.50;46.50
76203;DHT22;64985;46.364;17.008;2023-02-28T13:19:25;7.30;50.20
76203;DHT22;64985;46.364;17.008;2023-02-28T13:22:44;7.20;48.00
76203;DHT22;64985;46.364;17.008;2023-02-28T13:38:33;6.90;46.90
76203;DHT22;64985;46.364;17.008;2023-02-28T13:41:44;7.10;48.20
76203;DHT22;64985;46.364;17.008;2023-02-28T13:48:16;7.20;53.60
76203;DHT22;64985;46.364;17.008;2023-02-28T13:58:53;7.00;47.00
76203;DHT22;64985;46.364;17.008;2023-02-28T14:05:23;7.10;44.70
76203;DHT22;64985;46.364;17.008;2023-02-28T14:08:28;6.90;46.20
76203;DHT22;64985;46.364;17.008;2023-02-28T14:17:37;6.70;44.20
76203;DHT22;64985;46.364;17.008;2023-02-28T14:20:40;6.80;44.80
76203;DHT22;64985;46.364;17.008;2023-02-28T14:37:41;6.60;50.10
76203;DHT22;64985;46.364;17.008;2023-02-28T14:40:45;6.60;51.70
76203;DHT22;64985;46.364;17.008;2023-02-28T14:43:51;6.50;43.80
76203;DHT22;64985;46.364;17.008;2023-02-28T14:46:57;6.40;49.40
76203;DHT22;64985;46.364;17.008;2023-02-28T14:50:02;6.30;51.30
76203;DHT22;64985;46.364;17.008;2023-02-28T14:53:09;6.20;49.20
76203;DHT22;64985;46.364;17.008;2023-02-28T14:56:30;6.30;50.30
76203;DHT22;64985;46.364;17.008;2023-02-28T14:59:36;6.60;50.10
76203;DHT22;64985;46.364;17.008;2023-02-28T15:02:39;6.80;45.70
76203;DHT22;64985;46.364;17.008;2023-02-28T15:05:41;7.10;43.20
76203;DHT22;64985;46.364;17.008;2023-02-28T15:08:44;7.40;40.70
76203;DHT22;64985;46.364;17.008;2023-02-28T15:11:48;7.50;43.10
76203;DHT22;64985;46.364;17.008;2023-02-28T15:14:51;7.50;45.20
76203;DHT22;64985;46.364;17.008;2023-02-28T15:17:56;7.20;40.00
76203;DHT22;64985;46.364;17.008;2023-02-28T15:21:03;6.90;40.20
76203;DHT22;64985;46.364;17.008;2023-02-28T15:27:27;6.50;46.30
76203;DHT22;64985;46.364;17.008;2023-02-28T15:30:32;6.20;47.00
76203;DHT22;64985;46.364;17.008;2023-02-28T15:33:35;5.90;47.70
76203;DHT22;64985;46.364;17.008;2023-02-28T15:36:37;5.70;48.50
76203;DHT22;64985;46.364;17.008;2023-02-28T15:39:42;5.60;50.80
76203;DHT22;64985;46.364;17.008;2023-02-28T15:43:18;5.50;57.20
76203;DHT22;64985;46.364;17.008;2023-02-28T15:46:20;5.50;58.90
76203;DHT22;64985;46.364;17.008;2023-02-28T15:49:25;5.40;58.50
76203;DHT22;64985;46.364;17.008;2023-02-28T15:52:33;5.20;57.20
76203;DHT22;64985;46.364;17.008;2023-02-28T15:55:36;5.10;56.70
76203;DHT22;64985;46.364;17.008;2023-02-28T15:58:38;5.00;63.60
76203;DHT22;64985;46.364;17.008;2023-02-28T16:01:41;5.00;66.10
76203;DHT22;64985;46.364;17.008;2023-02-28T16:05:02;4.90;68.80
76203;DHT22;64985;46.364;17.008;2023-02-28T16:08:15;4.90;61.70
76203;DHT22;64985;46.364;17.008;2023-02-28T16:11:19;4.90;63.50
76203;DHT22;64985;46.364;17.008;2023-02-28T16:14:24;4.80;68.20
76203;DHT22;64985;46.364;17.008;2023-02-28T16:17:33;4.80;69.30
76203;DHT22;64985;46.364;17.008;2023-02-28T16:20:36;4.70;68.60
76203;DHT22;64985;46.364;17.008;2023-02-28T16:23:39;4.60;75.20
76203;DHT22;64985;46.364;17.008;2023-02-28T16:26:46;4.60;73.60
76203;DHT22;64985;46.364;17.008;2023-02-28T16:29:50;4.60;77.90
76203;DHT22;64985;46.364;17.008;2023-02-28T16:32:54;4.50;69.80
76203;DHT22;64985;46.364;17.008;2023-02-28T16:35:58;4.50;69.20
76203;DHT22;64985;46.364;17.008;2023-02-28T16:39:00;4.40;75.50
76203;DHT22;64985;46.364;17.008;2023-02-28T16:42:04;4.40;79.10
76203;DHT22;64985;46.364;17.008;2023-02-28T16:45:19;4.30;80.20
76203;DHT22;64985;46.364;17.008;2023-02-28T16:48:22;4.20;81.80
76203;DHT22;64985;46.364;17.008;2023-02-28T16:51:25;4.20;78.70
76203;DHT22;64985;46.364;17.008;2023-02-28T16:54:27;4.10;85.10
76203;DHT22;64985;46.364;17.008;2023-02-28T16:57:29;4.00;84.20
76203;DHT22;64985;46.364;17.008;2023-02-28T17:00:35;4.00;86.20
76203;DHT22;64985;46.364;17.008;2023-02-28T17:03:38;4.00;84.50
76203;DHT22;64985;46.364;17.008;2023-02-28T17:06:42;4.00;86.20
76203;DHT22;64985;46.364;17.008;2023-02-28T17:09:44;3.90;87.50
76203;DHT22;64985;46.364;17.008;2023-02-28T17:12:48;3.90;90.30
76203;DHT22;64985;46.364;17.008;2023-02-28T17:15:51;3.90;90.30
76203;DHT22;64985;46.364;17.008;2023-02-28T17:18:57;3.90;90.80
76203;DHT22;64985;46.364;17.008;2023-02-28T17:22:00;3.80;91.00
76203;DHT22;64985;46.364;17.008;2023-02-28T17:25:02;3.80;91.70
76203;DHT22;64985;46.364;17.008;2023-02-28T17:28:08;3.80;91.00
76203;DHT22;64985;46.364;17.008;2023-02-28T17:31:11;3.70;92.60
76203;DHT22;64985;46.364;17.008;2023-02-28T17:34:14;3.70;93.00
76203;DHT22;64985;46.364;17.008;2023-02-28T17:37:20;3.70;92.70
76203;DHT22;64985;46.364;17.008;2023-02-28T17:40:24;3.70;92.80
76203;DHT22;64985;46.364;17.008;2023-02-28T17:43:27;3.60;93.70
76203;DHT22;64985;46.364;17.008;2023-02-28T17:46:30;3.60;93.00
76203;DHT22;64985;46.364;17.008;2023-02-28T17:49:34;3.60;94.00
76203;DHT22;64985;46.364;17.008;2023-02-28T17:52:39;3.60;94.00
76203;DHT22;64985;46.364;17.008;2023-02-28T17:55:41;3.60;94.10
76203;DHT22;64985;46.364;17.008;2023-02-28T17:58:43;3.60;93.80
76203;DHT22;64985;46.364;17.008;2023-02-28T18:01:46;3.60;94.20
76203;DHT22;64985;46.364;17.008;2023-02-28T18:04:49;3.50;95.70
76203;DHT22;64985;46.364;17.008;2023-02-28T18:07:51;3.50;94.80
76203;DHT22;64985;46.364;17.008;2023-02-28T18:11:00;3.50;94.20
76203;DHT22;64985;46.364;17.008;2023-02-28T18:14:03;3.50;94.30
76203;DHT22;64985;46.364;17.008;2023-02-28T18:17:05;3.40;95.40
76203;DHT22;64985;46.364;17.008;2023-02-28T18:20:10;3.40;94.60
76203;DHT22;64985;46.364;17.008;2023-02-28T18:23:13;3.40;94.60
76203;DHT22;64985;46.364;17.008;2023-02-28T18:26:17;3.40;95.20
76203;DHT22;64985;46.364;17.008;2023-02-28T18:29:25;3.30;96.50
76203;DHT22;64985;46.364;17.008;2023-02-28T18:32:28;3.30;96.00
76203;DHT22;64985;46.364;17.008;2023-02-28T18:35:31;3.30;96.50
76203;DHT22;64985;46.364;17.008;2023-02-28T18:38:37;3.30;95.50
76203;DHT22;64985;46.364;17.008;2023-02-28T18:41:41;3.30;96.20
76203;DHT22;64985;46.364;17.008;2023-02-28T18:44:44;3.30;96.40
76203;DHT22;64985;46.364;17.008;2023-02-28T18:47:47;3.30;98.10
76203;DHT22;64985;46.364;17.008;2023-02-28T18:50:51;3.20;98.10
76203;DHT22;64985;46.364;17.008;2023-02-28T18:53:54;3.20;98.60
76203;DHT22;64985;46.364;17.008;2023-02-28T18:56:57;3.20;97.60
76203;DHT22;64985;46.364;17.008;2023-02-28T19:00:00;3.20;97.60
76203;DHT22;64985;46.364;17.008;2023-02-28T19:03:05;3.20;98.70
76203;DHT22;64985;46.364;17.008;2023-02-28T19:06:09;3.10;99.70
76203;DHT22;64985;46.364;17.008;2023-02-28T19:09:12;3.10;99.90
76203;DHT22;64985;46.364;17.008;2023-02-28T19:12:16;3.10;99.00
76203;DHT22;64985;46.364;17.008;2023-02-28T19:15:22;3.00;98.70
76203;DHT22;64985;46.364;17.008;2023-02-28T19:18:26;3.10;98.10
76203;DHT22;64985;46.364;17.008;2023-02-28T19:21:30;3.00;99.70
76203;DHT22;64985;46.364;17.008;2023-02-28T19:24:33;3.10;99.90
76203;DHT22;64985;46.364;17.008;2023-02-28T19:27:36;3.00;99.90
76203;DHT22;64985;46.364;17.008;2023-02-28T19:30:46;3.00;99.90
76203;DHT22;64985;46.364;17.008;2023-02-28T19:33:51;3.00;99.90
76203;DHT22;64985;46.364;17.008;2023-02-28T19:36:54;3.00;99.90
76203;DHT22;64985;46.364;17.008;2023-02-28T19:39:59;3.00;99.90
76203;DHT22;64985;46.364;17.008;2023-02-28T19:43:04;2.90;99.90
76203;DHT22;64985;46.364;17.008;2023-02-28T19:46:08;2.90;99.90
76203;DHT22;64985;46.364;17.008;2023-02-28T19:49:11;2.90;99.90
76203;DHT22;64985;46.364;17.008;2023-02-28T19:52:14;2.90;99.90
76203;DHT22;64985;46.364;17.008;2023-02-28T19:55:18;2.80;99.90
76203;DHT22;64985;46.364;17.008;2023-02-28T19:58:21;2.80;99.90
76203;DHT22;64985;46.364;17.008;2023-02-28T20:01:25;2.80;99.90
76203;DHT22;64985;46.364;17.008;2023-02-28T20:04:29;2.80;99.90
76203;DHT22;64985;46.364;17.008;2023-02-28T20:07:32;2.80;99.90
76203;DHT22;64985;46.364;17.008;2023-02-28T20:10:36;2.80;99.90
76203;DHT22;64985;46.364;17.008;2023-02-28T20:13:39;2.80;99.90
76203;DHT22;64985;46.364;17.008;2023-02-28T20:16:44;2.80;99.90
76203;DHT22;64985;46.364;17.008;2023-02-28T20:19:47;2.80;99.90
76203;DHT22;64985;46.364;17.008;2023-02-28T20:22:50;2.80;99.90
76203;DHT22;64985;46.364;17.008;2023-02-28T20:25:58;2.70;99.90
76203;DHT22;64985;46.364;17.008;2023-02-28T20:29:01;2.70;99.90
76203;DHT22;64985;46.364;17.008;2023-02-28T20:32:04;2.70;99.90
76203;DHT22;64985;46.364;17.008;2023-02-28T20:35:10;2.70;99.90
76203;DHT22;64985;46.364;17.008;2023-02-28T20:38:14;2.70;99.90
76203;DHT22;64985;46.364;17.008;2023-02-28T20:41:18;2.70;99.90
76203;DHT22;64985;46.364;17.008;2023-02-28T20:44:22;2.70;99.90
76203;DHT22;64985;46.364;17.008;2023-02-28T20:47:24;2.70;99.90
76203;DHT22;64985;46.364;17.008;2023-02-28T20:50:27;2.70;99.90
76203;DHT22;64985;46.364;17.008;2023-02-28T20:53:32;2.70;99.90
76203;DHT22;64985;46.364;17.008;2023-02-28T20:56:35;2.70;99.90
76203;DHT22;64985;46.364;17.008;2023-02-28T20:59:38;2.70;99.90
76203;DHT22;64985;46.364;17.008;2023-02-28T21:02:42;2.70;99.90
76203;DHT22;64985;46.364;17.008;2023-02-28T21:05:45;2.70;99.90
76203;DHT22;64985;46.364;17.008;2023-02-28T21:08:47;2.60;99.90
76203;DHT22;64985;46.364;17.008;2023-02-28T21:11:52;2.60;99.90
76203;DHT22;64985;46.364;17.008;2023-02-28T21:14:55;2.60;99.90
76203;DHT22;64985;46.364;17.008;2023-02-28T21:17:58;2.60;99.90
76203;DHT22;64985;46.364;17.008;2023-02-28T21:21:04;2.60;99.90
76203;DHT22;64985;46.364;17.008;2023-02-28T21:24:08;2.60;99.90
76203;DHT22;64985;46.364;17.008;2023-02-28T21:27:10;2.60;99.90
76203;DHT22;64985;46.364;17.008;2023-02-28T21:30:14;2.60;99.90
76203;DHT22;64985;46.364;17.008;2023-02-28T21:33:17;2.60;99.90
76203;DHT22;64985;46.364;17.008;2023-02-28T21:36:22;2.60;99.90
76203;DHT22;64985;46.364;17.008;2023-02-28T21:39:26;2.60;99.90
76203;DHT22;64985;46.364;17.008;2023-02-28T21:42:31;2.60;99.90
76203;DHT22;64985;46.364;17.008;2023-02-28T21:45:33;2.60;99.90